sensor_id;sensor_type;location;lat;lon;timestamp;pressure;altitude;pressure_sealevel;temperature;humidity
51439;BME280;38816;51.142;-0.974;2024-03-02T00:00:57;97526.38;;;2.84;100.00
51439;BME280;38816;51.142;-0.974;2024-03-02T00:03:23;97511.97;;;2.86;100.00
51439;BME280;38816;51.142;-0.974;2024-03-02T00:05:51;97502.69;;;2.85;100.00
51439;BME280;38816;51.142;-0.974;2024-03-02T00:08:25;97499.25;;;2.78;100.00
51439;BME280;38816;51.142;-0.974;2024-03-02T00:11:00;97495.03;;;2.71;100.00
51439;BME280;38816;51.142;-0.974;2024-03-02T00:13:28;97502.59;;;2.64;100.00
51439;BME280;38816;51.142;-0.974;2024-03-02T00:15:56;97500.88;;;2.55;100.00
51439;BME280;38816;51.142;-0.974;2024-03-02T00:18:32;97496.66;;;2.54;100.00
51439;BME280;38816;51.142;-0.974;2024-03-02T00:20:58;97494.13;;;2.56;100.00
51439;BME280;38816;51.142;-0.974;2024-03-02T00:23:27;97491.59;;;2.60;100.00
51439;BME280;38816;51.142;-0.974;2024-03-02T00:25:55;97500.09;;;2.68;100.00
51439;BME280;38816;51.142;-0.974;2024-03-02T00:28:23;97497.59;;;2.76;100.00
51439;BME280;38816;51.142;-0.974;2024-03-02T00:33:22;97496.75;;;2.83;100.00
51439;BME280;38816;51.142;-0.974;2024-03-02T00:35:49;97493.41;;;2.89;100.00
51439;BME280;38816;51.142;-0.974;2024-03-02T00:38:15;97488.31;;;2.86;100.00
51439;BME280;38816;51.142;-0.974;2024-03-02T00:40:42;97488.31;;;2.86;100.00
51439;BME280;38816;51.142;-0.974;2024-03-02T00:46:00;97477.34;;;2.93;100.00
51439;BME280;38816;51.142;-0.974;2024-03-02T00:48:26;97477.34;;;2.97;100.00
51439;BME280;38816;51.142;-0.974;2024-03-02T00:50:54;97472.25;;;2.99;100.00
51439;BME280;38816;51.142;-0.974;2024-03-02T00:53:23;97467.19;;;3.03;100.00
51439;BME280;38816;51.142;-0.974;2024-03-02T00:55:52;97463.78;;;3.01;100.00
51439;BME280;38816;51.142;-0.974;2024-03-02T00:58:18;97468.84;;;2.88;100.00
51439;BME280;38816;51.142;-0.974;2024-03-02T01:00:43;97474.75;;;2.71;100.00
51439;BME280;38816;51.142;-0.974;2024-03-02T01:03:09;97473.88;;;2.62;100.00
51439;BME280;38816;51.142;-0.974;2024-03-02T01:05:41;97463.69;;;2.54;100.00
51439;BME280;38816;51.142;-0.974;2024-03-02T01:08:08;97456.91;;;2.56;100.00
51439;BME280;38816;51.142;-0.974;2024-03-02T01:10:34;97462.91;;;2.67;100.00
51439;BME280;38816;51.142;-0.974;2024-03-02T01:12:59;97472.19;;;2.79;100.00
51439;BME280;38816;51.142;-0.974;2024-03-02T01:15:25;97469.69;;;2.87;100.00
51439;BME280;38816;51.142;-0.974;2024-03-02T01:17:50;97474.78;;;2.96;100.00
51439;BME280;38816;51.142;-0.974;2024-03-02T01:20:16;97463.81;;;3.04;100.00
51439;BME280;38816;51.142;-0.974;2024-03-02T01:22:42;97466.34;;;3.11;100.00
51439;BME280;38816;51.142;-0.974;2024-03-02T01:25:08;97468.88;;;3.11;100.00
51439;BME280;38816;51.142;-0.974;2024-03-02T01:27:34;97468.03;;;3.01;100.00
51439;BME280;38816;51.142;-0.974;2024-03-02T01:29:59;97462.94;;;2.92;100.00
51439;BME280;38816;51.142;-0.974;2024-03-02T01:32:25;97461.25;;;2.85;100.00
51439;BME280;38816;51.142;-0.974;2024-03-02T01:34:50;97469.69;;;2.81;100.00
51439;BME280;38816;51.142;-0.974;2024-03-02T01:37:16;97461.22;;;2.75;100.00
51439;BME280;38816;51.142;-0.974;2024-03-02T01:39:41;97472.19;;;2.70;100.00
51439;BME280;38816;51.142;-0.974;2024-03-02T01:42:07;97467.97;;;2.69;100.00
51439;BME280;38816;51.142;-0.974;2024-03-02T01:44:36;97456.97;;;2.64;100.00
51439;BME280;38816;51.142;-0.974;2024-03-02T01:47:01;97447.63;;;2.57;100.00
51439;BME280;38816;51.142;-0.974;2024-03-02T01:49:27;97452.69;;;2.57;100.00
51439;BME280;38816;51.142;-0.974;2024-03-02T01:51:52;97457.78;;;2.58;100.00
51439;BME280;38816;51.142;-0.974;2024-03-02T01:54:18;97452.72;;;2.58;100.00
51439;BME280;38816;51.142;-0.974;2024-03-02T01:56:43;97450.19;;;2.60;100.00
51439;BME280;38816;51.142;-0.974;2024-03-02T01:59:10;97444.25;;;2.61;100.00
51439;BME280;38816;51.142;-0.974;2024-03-02T02:01:36;97430.75;;;2.60;100.00
51439;BME280;38816;51.142;-0.974;2024-03-02T02:04:01;97432.44;;;2.64;100.00
51439;BME280;38816;51.142;-0.974;2024-03-02T02:06:27;97439.22;;;2.68;100.00
51439;BME280;38816;51.142;-0.974;2024-03-02T02:08:52;97433.31;;;2.68;100.00
51439;BME280;38816;51.142;-0.974;2024-03-02T02:11:18;97427.41;;;2.72;100.00
51439;BME280;38816;51.142;-0.974;2024-03-02T02:13:44;97422.31;;;2.73;100.00
51439;BME280;38816;51.142;-0.974;2024-03-02T02:16:09;97425.72;;;2.75;100.00
51439;BME280;38816;51.142;-0.974;2024-03-02T02:18:35;97415.56;;;2.78;100.00
51439;BME280;38816;51.142;-0.974;2024-03-02T02:21:03;97407.97;;;2.80;100.00
51439;BME280;38816;51.142;-0.974;2024-03-02T02:23:29;97411.34;;;2.84;100.00
51439;BME280;38816;51.142;-0.974;2024-03-02T02:25:54;97402.03;;;2.87;100.00
51439;BME280;38816;51.142;-0.974;2024-03-02T02:28:20;97397.84;;;2.89;100.00
51439;BME280;38816;51.142;-0.974;2024-03-02T02:30:45;97390.19;;;2.88;100.00
51439;BME280;38816;51.142;-0.974;2024-03-02T02:33:11;97380.06;;;2.88;100.00
51439;BME280;38816;51.142;-0.974;2024-03-02T02:35:36;97383.44;;;2.85;100.00
51439;BME280;38816;51.142;-0.974;2024-03-02T02:38:03;97375.81;;;2.82;100.00
51439;BME280;38816;51.142;-0.974;2024-03-02T02:40:28;97377.53;;;2.82;100.00
51439;BME280;38816;51.142;-0.974;2024-03-02T02:42:57;97374.16;;;2.84;100.00
51439;BME280;38816;51.142;-0.974;2024-03-02T02:45:24;97367.38;;;2.88;100.00
51439;BME280;38816;51.142;-0.974;2024-03-02T02:47:49;97370.75;;;2.94;100.00
51439;BME280;38816;51.142;-0.974;2024-03-02T02:50:15;97360.63;;;2.97;100.00
51439;BME280;38816;51.142;-0.974;2024-03-02T02:52:41;97361.47;;;3.04;100.00
51439;BME280;38816;51.142;-0.974;2024-03-02T02:55:09;97355.53;;;3.08;100.00
51439;BME280;38816;51.142;-0.974;2024-03-02T02:57:36;97355.53;;;3.14;100.00
51439;BME280;38816;51.142;-0.974;2024-03-02T03:00:11;97349.59;;;3.18;100.00
51439;BME280;38816;51.142;-0.974;2024-03-02T03:02:43;97339.47;;;3.15;100.00
51439;BME280;38816;51.142;-0.974;2024-03-02T03:05:10;97333.53;;;3.19;100.00
51439;BME280;38816;51.142;-0.974;2024-03-02T03:07:37;97330.13;;;3.23;100.00
51439;BME280;38816;51.142;-0.974;2024-03-02T03:10:05;97329.28;;;3.30;100.00
51439;BME280;38816;51.142;-0.974;2024-03-02T03:12:32;97304.75;;;3.23;100.00
51439;BME280;38816;51.142;-0.974;2024-03-02T03:14:58;97303.03;;;3.32;100.00
51439;BME280;38816;51.142;-0.974;2024-03-02T03:17:23;97318.28;;;3.42;100.00
51439;BME280;38816;51.142;-0.974;2024-03-02T03:19:49;97304.69;;;3.49;100.00
51439;BME280;38816;51.142;-0.974;2024-03-02T03:22:15;97308.03;;;3.59;100.00
51439;BME280;38816;51.142;-0.974;2024-03-02T03:24:41;97304.66;;;3.66;100.00
51439;BME280;38816;51.142;-0.974;2024-03-02T03:27:06;97300.34;;;3.80;100.00
51439;BME280;38816;51.142;-0.974;2024-03-02T03:29:32;97302.03;;;3.85;100.00
51439;BME280;38816;51.142;-0.974;2024-03-02T03:31:58;97291.88;;;3.85;100.00
51439;BME280;38816;51.142;-0.974;2024-03-02T03:34:23;97283.38;;;3.86;100.00
51439;BME280;38816;51.142;-0.974;2024-03-02T03:36:49;97288.47;;;3.92;100.00
51439;BME280;38816;51.142;-0.974;2024-03-02T03:39:14;97284.22;;;3.92;100.00
51439;BME280;38816;51.142;-0.974;2024-03-02T03:41:43;97269.00;;;3.88;100.00
51439;BME280;38816;51.142;-0.974;2024-03-02T03:44:08;97261.38;;;3.85;100.00
51439;BME280;38816;51.142;-0.974;2024-03-02T03:46:34;97256.34;;;3.75;100.00
51439;BME280;38816;51.142;-0.974;2024-03-02T03:48:59;97251.31;;;3.66;100.00
51439;BME280;38816;51.142;-0.974;2024-03-02T03:51:25;97242.03;;;3.61;100.00
51439;BME280;38816;51.142;-0.974;2024-03-02T03:53:50;97242.81;;;3.64;100.00
51439;BME280;38816;51.142;-0.974;2024-03-02T03:56:15;97238.59;;;3.69;100.00
51439;BME280;38816;51.142;-0.974;2024-03-02T03:58:41;97238.53;;;3.77;100.00
51439;BME280;38816;51.142;-0.974;2024-03-02T04:01:06;97231.72;;;3.85;100.00
51439;BME280;38816;51.142;-0.974;2024-03-02T04:03:32;97230.88;;;3.85;100.00
51439;BME280;38816;51.142;-0.974;2024-03-02T04:05:57;97229.22;;;3.84;100.00
51439;BME280;38816;51.142;-0.974;2024-03-02T04:08:23;97225.81;;;3.85;100.00
51439;BME280;38816;51.142;-0.974;2024-03-02T04:10:48;97230.84;;;3.94;100.00
51439;BME280;38816;51.142;-0.974;2024-03-02T04:13:17;97224.91;;;3.96;100.00
51439;BME280;38816;51.142;-0.974;2024-03-02T04:15:42;97224.06;;;3.91;100.00
51439;BME280;38816;51.142;-0.974;2024-03-02T04:18:07;97219.00;;;3.90;100.00
51439;BME280;38816;51.142;-0.974;2024-03-02T04:20:33;97213.88;;;3.96;100.00
51439;BME280;38816;51.142;-0.974;2024-03-02T04:22:58;97206.22;;;3.99;100.00
51439;BME280;38816;51.142;-0.974;2024-03-02T04:25:24;97208.75;;;4.02;100.00
51439;BME280;38816;51.142;-0.974;2024-03-02T04:27:49;97203.63;;;4.08;100.00
51439;BME280;38816;51.142;-0.974;2024-03-02T04:30:15;97210.41;;;4.11;100.00
51439;BME280;38816;51.142;-0.974;2024-03-02T04:32:40;97195.19;;;4.06;100.00
51439;BME280;38816;51.142;-0.974;2024-03-02T04:35:07;97188.38;;;4.11;100.00
51439;BME280;38816;51.142;-0.974;2024-03-02T04:37:35;97198.50;;;4.14;100.00
51439;BME280;38816;51.142;-0.974;2024-03-02T04:40:01;97190.84;;;4.17;100.00
51439;BME280;38816;51.142;-0.974;2024-03-02T04:42:26;97181.53;;;4.18;100.00
51439;BME280;38816;51.142;-0.974;2024-03-02T04:44:51;97194.19;;;4.22;100.00
51439;BME280;38816;51.142;-0.974;2024-03-02T04:47:17;97189.94;;;4.26;100.00
51439;BME280;38816;51.142;-0.974;2024-03-02T04:49:42;97189.91;;;4.30;100.00
51439;BME280;38816;51.142;-0.974;2024-03-02T04:52:08;97200.00;;;4.37;100.00
51439;BME280;38816;51.142;-0.974;2024-03-02T04:54:34;97189.94;;;4.29;100.00
51439;BME280;38816;51.142;-0.974;2024-03-02T04:57:19;97197.53;;;4.27;100.00
51439;BME280;38816;51.142;-0.974;2024-03-02T04:59:45;97211.13;;;4.26;100.00
51439;BME280;38816;51.142;-0.974;2024-03-02T05:02:10;97232.31;;;4.25;100.00
51439;BME280;38816;51.142;-0.974;2024-03-02T05:04:36;97228.97;;;4.23;100.00
51439;BME280;38816;51.142;-0.974;2024-03-02T05:07:01;97212.88;;;4.20;100.00
51439;BME280;38816;51.142;-0.974;2024-03-02T05:09:27;97209.59;;;4.05;100.00
51439;BME280;38816;51.142;-0.974;2024-03-02T05:11:52;97203.69;;;3.96;100.00
51439;BME280;38816;51.142;-0.974;2024-03-02T05:14:30;97215.56;;;3.95;100.00
51439;BME280;38816;51.142;-0.974;2024-03-02T05:16:55;97214.69;;;3.99;100.00
51439;BME280;38816;51.142;-0.974;2024-03-02T05:19:21;97212.97;;;4.04;100.00
51439;BME280;38816;51.142;-0.974;2024-03-02T05:21:46;97218.03;;;4.09;100.00
51439;BME280;38816;51.142;-0.974;2024-03-02T05:24:11;97212.06;;;4.16;100.00
51439;BME280;38816;51.142;-0.974;2024-03-02T05:26:37;97201.06;;;4.11;100.00
51439;BME280;38816;51.142;-0.974;2024-03-02T05:29:02;97216.34;;;4.08;100.00
51439;BME280;38816;51.142;-0.974;2024-03-02T05:31:28;97213.00;;;4.01;100.00
51439;BME280;38816;51.142;-0.974;2024-03-02T05:33:53;97221.50;;;3.94;100.00
51439;BME280;38816;51.142;-0.974;2024-03-02T05:36:25;97219.00;;;3.93;100.00
51439;BME280;38816;51.142;-0.974;2024-03-02T05:38:50;97224.91;;;3.90;100.00
51439;BME280;38816;51.142;-0.974;2024-03-02T05:41:16;97220.72;;;3.81;100.00
51439;BME280;38816;51.142;-0.974;2024-03-02T05:43:41;97215.72;;;3.74;100.00
51439;BME280;38816;51.142;-0.974;2024-03-02T05:46:07;97214.81;;;3.78;100.00
51439;BME280;38816;51.142;-0.974;2024-03-02T05:48:32;97208.03;;;3.81;100.00
51439;BME280;38816;51.142;-0.974;2024-03-02T05:50:58;97219.00;;;3.87;100.00
51439;BME280;38816;51.142;-0.974;2024-03-02T05:53:23;97231.72;;;3.85;100.00
51439;BME280;38816;51.142;-0.974;2024-03-02T05:55:48;97221.63;;;3.74;100.00
51439;BME280;38816;51.142;-0.974;2024-03-02T05:58:18;97224.19;;;3.74;100.00
51439;BME280;38816;51.142;-0.974;2024-03-02T06:00:50;97220.81;;;3.66;100.00
51439;BME280;38816;51.142;-0.974;2024-03-02T06:03:16;97215.75;;;3.62;100.00
51439;BME280;38816;51.142;-0.974;2024-03-02T06:05:41;97210.72;;;3.52;100.00
51439;BME280;38816;51.142;-0.974;2024-03-02T06:08:06;97226.81;;;3.51;100.00
51439;BME280;38816;51.142;-0.974;2024-03-02T06:10:32;97218.38;;;3.45;100.00
51439;BME280;38816;51.142;-0.974;2024-03-02T06:12:58;97215.00;;;3.43;100.00
51439;BME280;38816;51.142;-0.974;2024-03-02T06:15:24;97220.09;;;3.43;100.00
51439;BME280;38816;51.142;-0.974;2024-03-02T06:17:50;97231.06;;;3.48;100.00
51439;BME280;38816;51.142;-0.974;2024-03-02T06:20:15;97224.25;;;3.56;100.00
51439;BME280;38816;51.142;-0.974;2024-03-02T06:22:41;97233.53;;;3.60;100.00
51439;BME280;38816;51.142;-0.974;2024-03-02T06:25:07;97235.22;;;3.66;100.00
51439;BME280;38816;51.142;-0.974;2024-03-02T06:27:32;97226.75;;;3.67;100.00
51439;BME280;38816;51.142;-0.974;2024-03-02T06:29:58;97237.75;;;3.70;100.00
51439;BME280;38816;51.142;-0.974;2024-03-02T06:32:23;97236.91;;;3.70;100.00
51439;BME280;38816;51.142;-0.974;2024-03-02T06:34:50;97239.47;;;3.65;100.00
51439;BME280;38816;51.142;-0.974;2024-03-02T06:37:16;97247.94;;;3.60;100.00
51439;BME280;38816;51.142;-0.974;2024-03-02T06:39:42;97248.81;;;3.52;100.00
51439;BME280;38816;51.142;-0.974;2024-03-02T06:42:08;97237.84;;;3.43;100.00
51439;BME280;38816;51.142;-0.974;2024-03-02T06:44:34;97242.13;;;3.35;100.00
51439;BME280;38816;51.142;-0.974;2024-03-02T06:46:59;97254.81;;;3.32;100.00
51439;BME280;38816;51.142;-0.974;2024-03-02T06:49:25;97250.63;;;3.24;100.00
51439;BME280;38816;51.142;-0.974;2024-03-02T06:51:50;97254.00;;;3.25;100.00
51439;BME280;38816;51.142;-0.974;2024-03-02T06:54:15;97259.03;;;3.28;100.00
51439;BME280;38816;51.142;-0.974;2024-03-02T06:56:41;97266.66;;;3.33;100.00
51439;BME280;38816;51.142;-0.974;2024-03-02T06:59:06;97264.09;;;3.39;100.00
51439;BME280;38816;51.142;-0.974;2024-03-02T07:01:32;97264.09;;;3.43;100.00
51439;BME280;38816;51.142;-0.974;2024-03-02T07:03:58;97263.22;;;3.46;100.00
51439;BME280;38816;51.142;-0.974;2024-03-02T07:06:23;97268.31;;;3.44;100.00
51439;BME280;38816;51.142;-0.974;2024-03-02T07:08:48;97275.91;;;3.49;100.00
51439;BME280;38816;51.142;-0.974;2024-03-02T07:11:17;97281.81;;;3.51;100.00
51439;BME280;38816;51.142;-0.974;2024-03-02T07:13:42;97286.91;;;3.54;100.00
51439;BME280;38816;51.142;-0.974;2024-03-02T07:16:08;97280.97;;;3.55;100.00
51439;BME280;38816;51.142;-0.974;2024-03-02T07:18:36;97286.91;;;3.51;100.00
51439;BME280;38816;51.142;-0.974;2024-03-02T07:21:10;97290.31;;;3.47;100.00
51439;BME280;38816;51.142;-0.974;2024-03-02T07:23:35;97292.88;;;3.28;100.00
51439;BME280;38816;51.142;-0.974;2024-03-02T07:26:01;97298.00;;;3.13;100.00
51439;BME280;38816;51.142;-0.974;2024-03-02T07:28:27;97298.00;;;3.01;100.00
51439;BME280;38816;51.142;-0.974;2024-03-02T07:31:03;97306.47;;;2.95;100.00
51439;BME280;38816;51.142;-0.974;2024-03-02T07:33:30;97309.88;;;2.90;100.00
51439;BME280;38816;51.142;-0.974;2024-03-02T07:35:56;97308.19;;;2.86;100.00
51439;BME280;38816;51.142;-0.974;2024-03-02T07:38:23;97315.78;;;2.76;100.00
51439;BME280;38816;51.142;-0.974;2024-03-02T07:40:49;97320.88;;;2.76;100.00
51439;BME280;38816;51.142;-0.974;2024-03-02T07:43:19;97335.22;;;2.68;100.00
51439;BME280;38816;51.142;-0.974;2024-03-02T07:45:45;97345.38;;;2.59;100.00
51439;BME280;38816;51.142;-0.974;2024-03-02T07:48:10;97337.72;;;2.47;100.00
51439;BME280;38816;51.142;-0.974;2024-03-02T07:50:36;97343.63;;;2.37;100.00
51439;BME280;38816;51.142;-0.974;2024-03-02T07:53:03;97344.47;;;2.31;100.00
51439;BME280;38816;51.142;-0.974;2024-03-02T07:55:29;97354.59;;;2.23;100.00
51439;BME280;38816;51.142;-0.974;2024-03-02T07:57:55;97354.56;;;2.20;100.00
51439;BME280;38816;51.142;-0.974;2024-03-02T08:00:21;97357.94;;;2.19;100.00
51439;BME280;38816;51.142;-0.974;2024-03-02T08:02:51;97366.38;;;2.15;100.00
51439;BME280;38816;51.142;-0.974;2024-03-02T08:05:20;97367.22;;;2.10;100.00
51439;BME280;38816;51.142;-0.974;2024-03-02T08:07:46;97371.38;;;1.97;100.00
51439;BME280;38816;51.142;-0.974;2024-03-02T08:10:13;97384.06;;;1.94;100.00
51439;BME280;38816;51.142;-0.974;2024-03-02T08:12:39;97387.38;;;1.88;100.00
51439;BME280;38816;51.142;-0.974;2024-03-02T08:15:05;97394.13;;;1.83;100.00
51439;BME280;38816;51.142;-0.974;2024-03-02T08:17:30;97392.44;;;1.84;100.00
51439;BME280;38816;51.142;-0.974;2024-03-02T08:19:56;97399.16;;;1.77;100.00
51439;BME280;38816;51.142;-0.974;2024-03-02T08:22:23;97403.38;;;1.80;100.00
51439;BME280;38816;51.142;-0.974;2024-03-02T08:24:51;97402.59;;;1.91;100.00
51439;BME280;38816;51.142;-0.974;2024-03-02T08:27:16;97400.13;;;2.05;100.00
51439;BME280;38816;51.142;-0.974;2024-03-02T08:29:42;97406.13;;;2.27;100.00
51439;BME280;38816;51.142;-0.974;2024-03-02T08:32:07;97415.50;;;2.49;100.00
51439;BME280;38816;51.142;-0.974;2024-03-02T08:34:33;97410.44;;;2.60;100.00
51439;BME280;38816;51.142;-0.974;2024-03-02T08:37:01;97404.56;;;2.72;100.00
51439;BME280;38816;51.142;-0.974;2024-03-02T08:39:27;97408.81;;;2.82;100.00
51439;BME280;38816;51.142;-0.974;2024-03-02T08:41:53;97416.44;;;2.91;100.00
51439;BME280;38816;51.142;-0.974;2024-03-02T08:44:19;97413.91;;;3.00;100.00
51439;BME280;38816;51.142;-0.974;2024-03-02T08:46:44;97416.44;;;3.00;100.00
51439;BME280;38816;51.142;-0.974;2024-03-02T08:49:10;97413.91;;;3.05;100.00
51439;BME280;38816;51.142;-0.974;2024-03-02T08:51:36;97419.81;;;3.19;100.00
51439;BME280;38816;51.142;-0.974;2024-03-02T08:54:01;97427.44;;;3.32;100.00
51439;BME280;38816;51.142;-0.974;2024-03-02T08:56:27;97430.00;;;3.44;100.00
51439;BME280;38816;51.142;-0.974;2024-03-02T08:58:52;97435.88;;;3.60;100.00
51439;BME280;38816;51.142;-0.974;2024-03-02T09:01:18;97439.25;;;3.75;100.00
51439;BME280;38816;51.142;-0.974;2024-03-02T09:03:45;97436.72;;;3.83;100.00
51439;BME280;38816;51.142;-0.974;2024-03-02T09:06:13;97441.78;;;3.89;100.00
51439;BME280;38816;51.142;-0.974;2024-03-02T09:08:39;97446.00;;;3.98;100.00
51439;BME280;38816;51.142;-0.974;2024-03-02T09:11:08;97444.25;;;4.09;100.00
51439;BME280;38816;51.142;-0.974;2024-03-02T09:13:35;97451.00;;;4.22;100.00
51439;BME280;38816;51.142;-0.974;2024-03-02T09:16:01;97453.50;;;4.31;100.00
51439;BME280;38816;51.142;-0.974;2024-03-02T09:18:27;97452.63;;;4.39;100.00
51439;BME280;38816;51.142;-0.974;2024-03-02T09:20:52;97458.53;;;4.51;100.00
51439;BME280;38816;51.142;-0.974;2024-03-02T09:23:18;97460.16;;;4.62;100.00
51439;BME280;38816;51.142;-0.974;2024-03-02T09:25:43;97465.19;;;4.72;100.00
51439;BME280;38816;51.142;-0.974;2024-03-02T09:28:09;97471.09;;;4.83;100.00
51439;BME280;38816;51.142;-0.974;2024-03-02T09:30:35;97471.91;;;4.89;100.00
51439;BME280;38816;51.142;-0.974;2024-03-02T09:33:00;97471.84;;;4.95;100.00
51439;BME280;38816;51.142;-0.974;2024-03-02T09:35:26;97479.47;;;4.99;100.00
51439;BME280;38816;51.142;-0.974;2024-03-02T09:37:51;97489.63;;;5.04;100.00
51439;BME280;38816;51.142;-0.974;2024-03-02T09:40:16;97479.41;;;5.08;100.00
51439;BME280;38816;51.142;-0.974;2024-03-02T09:42:42;97486.97;;;5.21;100.00
51439;BME280;38816;51.142;-0.974;2024-03-02T09:45:09;97487.75;;;5.30;100.00
51439;BME280;38816;51.142;-0.974;2024-03-02T09:47:36;97492.00;;;5.33;100.00
51439;BME280;38816;51.142;-0.974;2024-03-02T09:50:02;97497.94;;;5.33;100.00
51439;BME280;38816;51.142;-0.974;2024-03-02T09:52:29;97493.59;;;5.43;100.00
51439;BME280;38816;51.142;-0.974;2024-03-02T09:54:59;97492.69;;;5.55;100.00
51439;BME280;38816;51.142;-0.974;2024-03-02T09:57:24;97492.63;;;5.58;100.00
51439;BME280;38816;51.142;-0.974;2024-03-02T09:59:50;97484.16;;;5.56;100.00
51439;BME280;38816;51.142;-0.974;2024-03-02T10:02:15;97495.22;;;5.53;100.00
51439;BME280;38816;51.142;-0.974;2024-03-02T10:04:41;97481.69;;;5.48;100.00
51439;BME280;38816;51.142;-0.974;2024-03-02T10:07:10;97492.63;;;5.58;100.00
51439;BME280;38816;51.142;-0.974;2024-03-02T10:09:40;97502.75;;;5.67;100.00
51439;BME280;38816;51.142;-0.974;2024-03-02T10:12:07;97504.47;;;5.65;100.00
51439;BME280;38816;51.142;-0.974;2024-03-02T10:14:33;97498.56;;;5.63;100.00
51439;BME280;38816;51.142;-0.974;2024-03-02T10:17:09;97502.81;;;5.61;100.00
51439;BME280;38816;51.142;-0.974;2024-03-02T10:19:36;97507.03;;;5.65;100.00
51439;BME280;38816;51.142;-0.974;2024-03-02T10:22:09;97512.78;;;5.92;100.00
51439;BME280;38816;51.142;-0.974;2024-03-02T10:24:36;97501.50;;;6.16;100.00
51439;BME280;38816;51.142;-0.974;2024-03-02T10:27:10;97502.81;;;6.53;100.00
51439;BME280;38816;51.142;-0.974;2024-03-02T10:29:40;97512.53;;;6.92;100.00
51439;BME280;38816;51.142;-0.974;2024-03-02T10:32:08;97519.19;;;7.03;100.00
51439;BME280;38816;51.142;-0.974;2024-03-02T10:34:35;97520.22;;;6.90;100.00
51439;BME280;38816;51.142;-0.974;2024-03-02T10:37:01;97521.31;;;6.69;100.00
51439;BME280;38816;51.142;-0.974;2024-03-02T10:39:27;97529.13;;;6.57;100.00
51439;BME280;38816;51.142;-0.974;2024-03-02T10:41:55;97525.66;;;6.61;100.00
51439;BME280;38816;51.142;-0.974;2024-03-02T10:44:22;97530.66;;;6.70;100.00
51439;BME280;38816;51.142;-0.974;2024-03-02T10:46:49;97527.28;;;6.71;100.00
51439;BME280;38816;51.142;-0.974;2024-03-02T10:49:16;97533.31;;;6.64;100.00
51439;BME280;38816;51.142;-0.974;2024-03-02T10:51:42;97539.31;;;6.57;100.00
51439;BME280;38816;51.142;-0.974;2024-03-02T10:54:08;97549.59;;;6.54;100.00
51439;BME280;38816;51.142;-0.974;2024-03-02T10:56:38;97550.56;;;6.39;100.00
51439;BME280;38816;51.142;-0.974;2024-03-02T10:59:26;97552.56;;;6.13;100.00
51439;BME280;38816;51.142;-0.974;2024-03-02T11:01:58;97545.06;;;5.96;100.00
51439;BME280;38816;51.142;-0.974;2024-03-02T11:04:27;97544.22;;;5.95;100.00
51439;BME280;38816;51.142;-0.974;2024-03-02T11:06:59;97545.00;;;5.99;100.00
51439;BME280;38816;51.142;-0.974;2024-03-02T11:09:26;97537.22;;;6.14;100.00
51439;BME280;38816;51.142;-0.974;2024-03-02T11:14:40;97550.53;;;6.44;100.00
51439;BME280;38816;51.142;-0.974;2024-03-02T11:17:09;97558.13;;;6.53;100.00
51439;BME280;38816;51.142;-0.974;2024-03-02T11:19:38;97567.38;;;6.60;100.00
51439;BME280;38816;51.142;-0.974;2024-03-02T11:22:04;97575.72;;;6.76;100.00
51439;BME280;38816;51.142;-0.974;2024-03-02T11:24:31;97576.22;;;7.04;100.00
51439;BME280;38816;51.142;-0.974;2024-03-02T11:27:05;97568.44;;;7.16;100.00
51439;BME280;38816;51.142;-0.974;2024-03-02T11:32:04;97572.47;;;7.31;100.00
51439;BME280;38816;51.142;-0.974;2024-03-02T11:34:34;97564.75;;;7.35;100.00
51439;BME280;38816;51.142;-0.974;2024-03-02T11:37:03;97568.34;;;7.22;100.00
51439;BME280;38816;51.142;-0.974;2024-03-02T11:39:30;97571.50;;;7.40;100.00
51439;BME280;38816;51.142;-0.974;2024-03-02T11:41:56;97565.00;;;7.74;100.00
51439;BME280;38816;51.142;-0.974;2024-03-02T11:44:24;97567.16;;;8.00;100.00
51439;BME280;38816;51.142;-0.974;2024-03-02T11:47:06;97574.75;;;8.06;100.00
51439;BME280;38816;51.142;-0.974;2024-03-02T11:49:48;97577.88;;;7.71;100.00
51439;BME280;38816;51.142;-0.974;2024-03-02T11:52:14;97579.91;;;7.46;100.00
51439;BME280;38816;51.142;-0.974;2024-03-02T11:54:43;97581.13;;;7.19;100.00
51439;BME280;38816;51.142;-0.974;2024-03-02T11:57:13;97586.44;;;7.04;100.00
51439;BME280;38816;51.142;-0.974;2024-03-02T11:59:40;97586.59;;;6.92;100.00
51439;BME280;38816;51.142;-0.974;2024-03-02T12:02:06;97592.66;;;6.83;100.00
51439;BME280;38816;51.142;-0.974;2024-03-02T12:04:31;97586.66;;;6.85;100.00
51439;BME280;38816;51.142;-0.974;2024-03-02T12:07:00;97596.03;;;6.83;100.00
51439;BME280;38816;51.142;-0.974;2024-03-02T12:09:26;97596.03;;;6.87;100.00
51439;BME280;38816;51.142;-0.974;2024-03-02T12:14:32;97598.78;;;6.68;100.00
51439;BME280;38816;51.142;-0.974;2024-03-02T12:16:58;97603.19;;;6.52;100.00
51439;BME280;38816;51.142;-0.974;2024-03-02T12:19:27;97596.16;;;6.73;100.00
51439;BME280;38816;51.142;-0.974;2024-03-02T12:21:53;97595.34;;;6.69;100.00
51439;BME280;38816;51.142;-0.974;2024-03-02T12:24:21;97595.44;;;6.63;100.00
51439;BME280;38816;51.142;-0.974;2024-03-02T12:26:47;97602.38;;;6.49;100.00
51439;BME280;38816;51.142;-0.974;2024-03-02T12:29:13;97599.06;;;6.41;100.00
51439;BME280;38816;51.142;-0.974;2024-03-02T12:31:40;97599.81;;;6.47;100.00
51439;BME280;38816;51.142;-0.974;2024-03-02T12:34:06;97586.81;;;6.70;100.00
51439;BME280;38816;51.142;-0.974;2024-03-02T12:36:40;97580.63;;;6.94;100.00
51439;BME280;38816;51.142;-0.974;2024-03-02T12:39:07;97595.56;;;7.23;100.00
51439;BME280;38816;51.142;-0.974;2024-03-02T12:41:36;97593.53;;;7.48;100.00
51439;BME280;38816;51.142;-0.974;2024-03-02T12:44:02;97594.03;;;7.75;100.00
51439;BME280;38816;51.142;-0.974;2024-03-02T12:46:28;97595.69;;;7.76;100.00
51439;BME280;38816;51.142;-0.974;2024-03-02T12:48:54;97597.34;;;7.78;100.00
51439;BME280;38816;51.142;-0.974;2024-03-02T12:51:19;97596.19;;;7.99;100.00
51439;BME280;38816;51.142;-0.974;2024-03-02T12:53:45;97601.16;;;8.08;100.00
51439;BME280;38816;51.142;-0.974;2024-03-02T12:56:10;97596.91;;;8.58;100.00
51439;BME280;38816;51.142;-0.974;2024-03-02T12:58:40;97597.66;;;9.08;100.00
51439;BME280;38816;51.142;-0.974;2024-03-02T13:01:08;97597.19;;;9.31;100.00